createdAt,value
2023-04-05T00:00:30.494Z,3.06
2023-04-05T00:06:02.084Z,2.91
2023-04-05T00:11:38.401Z,2.96
2023-04-05T00:17:11.117Z,2.97
2023-04-05T00:22:41.863Z,2.91
2023-04-05T00:28:13.584Z,2.89
2023-04-05T00:33:45.256Z,2.98
2023-04-05T00:39:17.087Z,2.96
2023-04-05T00:44:48.438Z,2.85
2023-04-05T00:50:20.206Z,2.87
2023-04-05T00:55:52.292Z,2.85
2023-04-05T01:01:23.886Z,2.78
2023-04-05T01:06:55.400Z,2.75
2023-04-05T01:12:33.787Z,2.7
2023-04-05T01:18:05.201Z,2.77
2023-04-05T01:23:37.256Z,2.72
2023-04-05T01:29:08.611Z,2.75
2023-04-05T01:34:40.350Z,2.77
2023-04-05T01:40:12.409Z,2.76
2023-04-05T01:45:44.069Z,2.78
2023-04-05T01:51:15.704Z,2.7
2023-04-05T01:56:47.315Z,2.65
2023-04-05T02:02:18.987Z,2.66
2023-04-05T02:07:50.714Z,2.66
2023-04-05T02:13:26.966Z,2.44
2023-04-05T02:18:58.538Z,2.5
2023-04-05T02:24:30.367Z,2.48
2023-04-05T02:30:02.173Z,2.58
2023-04-05T02:35:33.888Z,2.62
2023-04-05T02:41:05.608Z,2.54
2023-04-05T02:46:37.395Z,2.46
2023-04-05T02:52:08.857Z,2.26
2023-04-05T02:57:40.587Z,2.19
2023-04-05T03:03:12.521Z,2.13
2023-04-05T03:08:44.021Z,2.11
2023-04-05T03:14:22.184Z,2.07
2023-04-05T03:19:54.042Z,1.99
2023-04-05T03:25:26.210Z,1.97
2023-04-05T03:30:57.362Z,1.94
2023-04-05T03:36:29.067Z,1.9
2023-04-05T03:42:00.978Z,1.75
2023-04-05T03:47:32.535Z,1.77
2023-04-05T03:53:04.266Z,1.78
2023-04-05T03:58:36.170Z,1.73
2023-04-05T04:04:07.836Z,1.6
2023-04-05T04:09:39.405Z,1.57
2023-04-05T04:15:15.733Z,1.47
2023-04-05T04:20:47.529Z,1.44
2023-04-05T04:26:18.977Z,1.41
2023-04-05T04:31:50.758Z,1.45
2023-04-05T04:37:22.866Z,1.22
2023-04-05T04:42:54.301Z,1.29
2023-04-05T04:48:26.018Z,1.29
2023-04-05T04:53:57.598Z,1.24
2023-04-05T04:59:29.596Z,1.19
2023-04-05T05:05:01.056Z,1.31
2023-04-05T05:10:32.779Z,1.34
2023-04-05T05:16:09.044Z,1.43
2023-04-05T05:21:40.681Z,1.46
2023-04-05T05:27:12.319Z,1.49
2023-04-05T05:32:44.254Z,1.46
2023-04-05T05:38:15.789Z,1.52
2023-04-05T05:43:47.494Z,1.52
2023-04-05T05:49:19.225Z,1.58
2023-04-05T05:54:51.082Z,1.66
2023-04-05T06:00:22.829Z,1.84
2023-04-05T06:05:54.397Z,1.92
2023-04-05T06:11:26.545Z,2.15
2023-04-05T06:17:02.212Z,2.32
2023-04-05T06:22:34.964Z,2.59
2023-04-05T06:28:05.718Z,2.89
2023-04-05T06:33:37.437Z,3.11
2023-04-05T06:39:09.244Z,3.18
2023-04-05T06:44:41.048Z,3.35
2023-04-05T06:50:12.601Z,3.48
2023-04-05T06:55:44.280Z,3.79
2023-04-05T07:01:16.989Z,4.1
2023-04-05T07:06:48.227Z,4.34
2023-04-05T07:12:19.467Z,4.76
2023-04-05T07:17:55.675Z,5.03
2023-04-05T07:23:27.425Z,5.12
2023-04-05T07:28:59.061Z,5.47
2023-04-05T07:34:30.752Z,5.63
2023-04-05T07:40:02.471Z,5.94
2023-04-05T07:45:34.219Z,5.43
2023-04-05T07:51:06.201Z,6.17
2023-04-05T07:56:37.879Z,6.48
2023-04-05T08:02:14.379Z,6.57
2023-04-05T08:07:41.384Z,6.41
2023-04-05T08:13:12.841Z,6.88
2023-04-05T08:18:49.127Z,7.39
2023-04-05T08:24:20.832Z,7.55
2023-04-05T08:29:52.591Z,7.23
2023-04-05T08:35:24.245Z,7.8
2023-04-05T08:40:55.936Z,7.68
2023-04-05T08:46:28.049Z,7.94
2023-04-05T08:51:59.316Z,7.94
2023-04-05T08:57:31.314Z,8.41
2023-04-05T09:03:02.963Z,8.43
2023-04-05T09:08:34.827Z,8.92
2023-04-05T09:14:06.206Z,9.09
2023-04-05T09:19:42.304Z,9.44
2023-04-05T09:25:14.037Z,9.26
2023-04-05T09:30:46.224Z,9.08
2023-04-05T09:36:17.634Z,8.83
2023-04-05T09:41:49.333Z,9.25
2023-04-05T09:47:21.084Z,9.04
2023-04-05T09:52:52.859Z,8.81
2023-04-05T09:58:24.539Z,9.37
2023-04-05T10:03:56.253Z,9.8
2023-04-05T10:09:28.407Z,10.0
2023-04-05T10:14:59.616Z,10.12
2023-04-05T10:20:37.741Z,10.78
2023-04-05T10:26:09.442Z,10.42
2023-04-05T10:31:41.201Z,9.96
2023-04-05T10:37:13.043Z,10.11
2023-04-05T10:42:44.610Z,9.99
2023-04-05T10:48:16.467Z,10.09
2023-04-05T10:53:50.002Z,11.08
2023-04-05T10:59:19.774Z,11.31
2023-04-05T11:04:51.573Z,11.34
2023-04-05T11:10:23.176Z,11.37
2023-04-05T11:15:54.994Z,11.46
2023-04-05T11:21:31.131Z,10.53
2023-04-05T11:27:02.778Z,10.54
2023-04-05T11:32:34.704Z,11.66
2023-04-05T11:38:06.788Z,11.28
2023-04-05T11:43:37.951Z,11.08
2023-04-05T11:49:09.832Z,11.35
2023-04-05T11:54:41.581Z,11.19
2023-04-05T12:00:13.095Z,12.15
2023-04-05T12:05:45.525Z,12.25
2023-04-05T12:11:16.745Z,12.52
2023-04-05T12:16:48.403Z,11.96
2023-04-05T12:22:26.600Z,11.83
2023-04-05T12:27:58.340Z,11.67
2023-04-05T12:33:29.797Z,10.87
2023-04-05T12:39:02.106Z,11.7
2023-04-05T12:44:33.606Z,11.96
2023-04-05T12:50:04.997Z,12.03
2023-04-05T12:55:37.299Z,11.61
2023-04-05T13:01:08.701Z,12.25
2023-04-05T13:06:40.372Z,12.01
2023-04-05T13:12:11.926Z,11.59
2023-04-05T13:17:44.135Z,11.93
2023-04-05T13:23:19.937Z,11.73
2023-04-05T13:28:51.385Z,12.19
2023-04-05T13:34:24.169Z,11.79
2023-04-05T13:39:55.180Z,11.94
2023-04-05T13:45:26.897Z,12.14
2023-04-05T13:50:58.646Z,12.17
2023-04-05T13:56:30.029Z,11.56
2023-04-05T14:02:01.913Z,12.13
2023-04-05T14:07:33.475Z,11.42
2023-04-05T14:13:05.366Z,11.88
2023-04-05T14:18:37.050Z,11.51
2023-04-05T14:24:13.133Z,12.2
2023-04-05T14:29:44.912Z,11.63
2023-04-05T14:35:16.658Z,11.49
2023-04-05T14:40:48.261Z,12.19
2023-04-05T14:46:20.003Z,12.11
2023-04-05T14:51:51.722Z,12.43
2023-04-05T14:57:23.623Z,12.49
2023-04-05T15:02:55.402Z,12.24
2023-04-05T15:08:27.055Z,11.88
2023-04-05T15:13:58.583Z,12.21
2023-04-05T15:19:31.082Z,12.17
2023-04-05T15:25:08.461Z,11.67
2023-04-05T15:30:40.887Z,12.0
2023-04-05T15:36:12.176Z,12.57
2023-04-05T15:41:43.624Z,12.52
2023-04-05T15:47:15.545Z,12.36
2023-04-05T15:52:47.235Z,11.42
2023-04-05T15:58:18.735Z,11.73
2023-04-05T16:03:50.706Z,11.85
2023-04-05T16:09:22.720Z,11.7
2023-04-05T16:14:53.955Z,11.32
2023-04-05T16:20:25.837Z,11.48
2023-04-05T16:26:02.382Z,11.65
2023-04-05T16:31:33.810Z,11.42
2023-04-05T16:37:05.262Z,11.88
2023-04-05T16:42:37.160Z,11.81
2023-04-05T16:48:08.760Z,11.65
2023-04-05T16:53:41.181Z,11.52
2023-04-05T16:59:12.286Z,11.7
2023-04-05T17:04:43.994Z,11.6
2023-04-05T17:10:15.828Z,11.46
2023-04-05T17:15:47.359Z,11.29
2023-04-05T17:21:19.206Z,11.01
2023-04-05T17:26:57.235Z,10.76
2023-04-05T17:32:28.884Z,10.58
2023-04-05T17:38:00.763Z,10.33
2023-04-05T17:43:32.338Z,10.11
2023-04-05T17:49:04.639Z,9.81
2023-04-05T17:54:35.816Z,9.55
2023-04-05T18:00:07.689Z,9.25
2023-04-05T18:05:39.234Z,9.01
2023-04-05T18:11:11.007Z,8.79
2023-04-05T18:16:42.673Z,8.61
2023-04-05T18:22:14.348Z,8.4
2023-04-05T18:27:52.475Z,8.24
2023-04-05T18:33:24.391Z,8.06
2023-04-05T18:38:55.920Z,7.9
2023-04-05T18:44:27.661Z,7.81
2023-04-05T18:49:59.658Z,7.71
2023-04-05T18:55:31.263Z,7.66
2023-04-05T19:01:02.832Z,7.54
2023-04-05T19:06:34.792Z,7.45
2023-04-05T19:12:06.227Z,7.4
2023-04-05T19:17:38.150Z,7.27
2023-04-05T19:23:09.703Z,7.18
2023-04-05T19:28:48.052Z,7.09
2023-04-05T19:34:19.571Z,7.01
2023-04-05T19:39:51.528Z,6.92
2023-04-05T19:45:23.090Z,6.88
2023-04-05T19:50:56.496Z,6.71
2023-04-05T19:56:26.523Z,6.67
2023-04-05T20:01:58.424Z,6.66
2023-04-05T20:07:30.221Z,6.6
2023-04-05T20:13:01.708Z,6.54
2023-04-05T20:18:33.688Z,6.53
2023-04-05T20:24:05.428Z,6.52
2023-04-05T20:29:41.545Z,6.41
2023-04-05T20:35:13.030Z,6.34
2023-04-05T20:40:45.514Z,6.33
2023-04-05T20:46:16.697Z,6.21
2023-04-05T20:51:48.249Z,6.15
2023-04-05T20:57:19.951Z,6.11
2023-04-05T21:02:51.955Z,6.03
2023-04-05T21:08:23.455Z,6.06
2023-04-05T21:13:55.116Z,5.99
2023-04-05T21:19:26.835Z,5.89
2023-04-05T21:24:58.588Z,5.79
2023-04-05T21:30:35.591Z,5.81
2023-04-05T21:36:06.818Z,5.73
2023-04-05T21:41:38.445Z,5.62
2023-04-05T21:47:09.818Z,5.55
2023-04-05T21:52:42.665Z,5.36
2023-04-05T21:58:13.292Z,5.49
2023-04-05T22:03:45.068Z,5.46
2023-04-05T22:09:16.755Z,5.41
2023-04-05T22:14:48.488Z,5.36
2023-04-05T22:20:20.335Z,5.3
2023-04-05T22:25:52.271Z,5.11
2023-04-05T22:31:28.428Z,5.06
2023-04-05T22:36:59.966Z,5.01
2023-04-05T22:42:31.739Z,4.91
2023-04-05T22:48:03.299Z,4.87
2023-04-05T22:53:34.989Z,4.83
2023-04-05T22:59:07.426Z,4.79
2023-04-05T23:04:38.431Z,4.68
2023-04-05T23:10:10.315Z,4.64
2023-04-05T23:15:42.103Z,4.58
2023-04-05T23:21:13.675Z,4.51
2023-04-05T23:26:45.262Z,4.38
2023-04-05T23:32:21.427Z,4.26
2023-04-05T23:37:53.191Z,4.22
2023-04-05T23:43:25.033Z,4.13
2023-04-05T23:48:56.872Z,4.15
2023-04-05T23:54:28.368Z,4.14
